createdAt,value
2022-10-06T00:01:07.058Z,101526.09
2022-10-06T00:03:40.367Z,101525.54
2022-10-06T00:06:11.511Z,101524.30
2022-10-06T00:08:42.141Z,101521.83
2022-10-06T00:11:11.110Z,101524.23
2022-10-06T00:13:39.827Z,101522.62
2022-10-06T00:16:21.876Z,101525.74
2022-10-06T00:18:50.399Z,101526.42
2022-10-06T00:21:18.468Z,101527.61
2022-10-06T00:23:46.434Z,101535.78
2022-10-06T00:26:17.071Z,101532.45
2022-10-06T00:28:48.806Z,101531.37
2022-10-06T00:31:17.755Z,101531.70
2022-10-06T00:33:46.715Z,101530.98
2022-10-06T00:36:15.298Z,101529.39
2022-10-06T00:38:43.573Z,101528.66
2022-10-06T00:41:17.980Z,101532.45
2022-10-06T00:43:49.647Z,101525.98
2022-10-06T00:46:23.323Z,101531.19
2022-10-06T00:49:05.644Z,101530.63
2022-10-06T00:51:35.248Z,101535.84
2022-10-06T00:54:03.866Z,101534.08
2022-10-06T00:56:32.321Z,101530.91
2022-10-06T00:59:00.484Z,101534.38
2022-10-06T01:01:32.537Z,101536.46
2022-10-06T01:04:07.176Z,101532.61
2022-10-06T01:06:47.842Z,101532.59
2022-10-06T01:09:17.446Z,101532.22
2022-10-06T01:11:48.791Z,101539.17
2022-10-06T01:14:18.401Z,101534.98
2022-10-06T01:16:52.925Z,101532.69
2022-10-06T01:19:47.717Z,101531.27
2022-10-06T01:22:18.247Z,101533.52
2022-10-06T01:24:48.363Z,101533.50
2022-10-06T01:27:17.470Z,101531.92
2022-10-06T01:29:45.836Z,101531.92
2022-10-06T01:32:14.774Z,101535.91
2022-10-06T01:34:43.183Z,101536.23
2022-10-06T01:37:11.384Z,101540.59
2022-10-06T01:39:39.871Z,101541.11
2022-10-06T01:42:07.930Z,101542.48
2022-10-06T01:44:36.315Z,101541.94
2022-10-06T01:47:06.074Z,101542.61
2022-10-06T01:49:34.397Z,101538.77
2022-10-06T01:52:03.687Z,101535.63
2022-10-06T01:54:31.764Z,101532.30
2022-10-06T01:56:59.735Z,101531.44
2022-10-06T01:59:28.417Z,101530.91
2022-10-06T02:01:56.748Z,101534.72
2022-10-06T02:04:24.895Z,101531.94
2022-10-06T02:06:55.600Z,101532.11
2022-10-06T02:09:24.079Z,101534.90
2022-10-06T02:11:54.401Z,101530.39
2022-10-06T02:14:22.583Z,101534.58
2022-10-06T02:16:50.960Z,101533.71
2022-10-06T02:19:18.864Z,101536.67
2022-10-06T02:21:46.897Z,101542.09
2022-10-06T02:24:14.958Z,101544.20
2022-10-06T02:26:42.857Z,101545.43
2022-10-06T02:29:10.794Z,101545.27
2022-10-06T02:31:38.802Z,101545.31
2022-10-06T02:34:07.037Z,101549.52
2022-10-06T02:36:35.119Z,101548.66
2022-10-06T02:39:04.271Z,101550.77
2022-10-06T02:41:32.894Z,101552.35
2022-10-06T02:44:01.264Z,101553.60
2022-10-06T02:46:29.351Z,101553.45
2022-10-06T02:48:57.309Z,101548.42
2022-10-06T02:51:25.578Z,101549.84
2022-10-06T02:53:54.577Z,101551.75
2022-10-06T02:56:24.694Z,101552.98
2022-10-06T02:58:53.888Z,101554.23
2022-10-06T03:01:33.968Z,101555.44
2022-10-06T03:04:08.255Z,101551.28
2022-10-06T03:06:36.223Z,101546.76
2022-10-06T03:09:30.100Z,101549.40
2022-10-06T03:11:58.276Z,101547.14
2022-10-06T03:14:45.697Z,101542.96
2022-10-06T03:17:13.768Z,101543.67
2022-10-06T03:19:47.264Z,101540.90
2022-10-06T03:22:15.541Z,101542.64
2022-10-06T03:24:50.882Z,101546.31
2022-10-06T03:27:18.850Z,101555.54
2022-10-06T03:29:46.818Z,101560.77
2022-10-06T03:32:15.219Z,101565.47
2022-10-06T03:34:43.760Z,101571.92
2022-10-06T03:37:13.187Z,101573.14
2022-10-06T03:39:41.151Z,101572.10
2022-10-06T03:42:09.424Z,101569.83
2022-10-06T03:44:37.495Z,101576.63
2022-10-06T03:47:05.870Z,101578.55
2022-10-06T03:49:34.349Z,101580.66
2022-10-06T03:52:02.423Z,101578.41
2022-10-06T03:54:33.360Z,101579.67
2022-10-06T03:57:01.531Z,101583.20
2022-10-06T03:59:34.358Z,101577.84
2022-10-06T04:02:05.610Z,101583.99
2022-10-06T04:04:38.295Z,101583.71
2022-10-06T04:07:11.127Z,101585.00
2022-10-06T04:09:40.013Z,101588.39
2022-10-06T04:12:09.723Z,101585.87
2022-10-06T04:14:39.428Z,101583.85
2022-10-06T04:17:08.727Z,101589.66
2022-10-06T04:19:38.644Z,101588.15
2022-10-06T04:22:06.720Z,101581.91
2022-10-06T04:24:35.312Z,101577.40
2022-10-06T04:27:22.410Z,101588.78
2022-10-06T04:30:04.729Z,101589.34
2022-10-06T04:32:33.400Z,101590.75
2022-10-06T04:35:01.791Z,101587.63
2022-10-06T04:37:30.263Z,101600.05
2022-10-06T04:39:58.973Z,101600.41
2022-10-06T04:42:34.770Z,101603.05
2022-10-06T04:45:05.480Z,101604.62
2022-10-06T04:47:34.118Z,101605.52
2022-10-06T04:50:02.694Z,101603.25
2022-10-06T04:52:31.276Z,101606.05
2022-10-06T04:54:59.347Z,101606.76
2022-10-06T04:57:27.996Z,101613.05
2022-10-06T05:00:15.268Z,101610.95
2022-10-06T05:02:46.291Z,101609.92
2022-10-06T05:05:14.462Z,101613.07
2022-10-06T05:07:45.915Z,101626.53
2022-10-06T05:10:16.374Z,101628.98
2022-10-06T05:12:44.717Z,101630.92
2022-10-06T05:15:12.688Z,101632.16
2022-10-06T05:17:41.270Z,101636.54
2022-10-06T05:20:11.282Z,101634.96
2022-10-06T05:22:39.681Z,101636.02
2022-10-06T05:25:08.626Z,101637.94
2022-10-06T05:27:36.621Z,101635.14
2022-10-06T05:30:05.111Z,101638.81
2022-10-06T05:32:36.085Z,101643.36
2022-10-06T05:35:07.978Z,101645.29
2022-10-06T05:37:36.385Z,101651.92
2022-10-06T05:40:05.284Z,101651.92
2022-10-06T05:42:33.338Z,101655.42
2022-10-06T05:45:01.512Z,101654.73
2022-10-06T05:47:29.910Z,101651.22
2022-10-06T05:49:58.268Z,101659.97
2022-10-06T05:52:26.337Z,101669.05
2022-10-06T05:54:54.724Z,101660.83
2022-10-06T05:57:22.990Z,101662.23
2022-10-06T05:59:51.062Z,101663.98
2022-10-06T06:02:19.376Z,101669.21
2022-10-06T06:04:47.822Z,101672.89
2022-10-06T06:07:15.780Z,101674.27
2022-10-06T06:09:45.293Z,101675.33
2022-10-06T06:12:14.609Z,101683.38
2022-10-06T06:15:05.189Z,101686.52
2022-10-06T06:17:38.380Z,101685.98
2022-10-06T06:20:07.474Z,101697.34
2022-10-06T06:22:36.054Z,101708.54
2022-10-06T06:25:06.595Z,101711.85
2022-10-06T06:27:35.888Z,101718.33
2022-10-06T06:30:06.298Z,101716.39
2022-10-06T06:32:34.817Z,101724.27
2022-10-06T06:35:04.348Z,101728.98
2022-10-06T06:37:33.694Z,101735.80
2022-10-06T06:40:02.113Z,101736.66
2022-10-06T06:42:32.341Z,101743.98
2022-10-06T06:45:23.606Z,101755.38
2022-10-06T06:48:02.537Z,101760.96
2022-10-06T06:50:32.756Z,101764.10
2022-10-06T06:53:02.597Z,101763.88
2022-10-06T06:55:32.069Z,101763.68
2022-10-06T06:58:00.963Z,101766.27
2022-10-06T07:00:33.807Z,101763.95
2022-10-06T07:03:04.368Z,101767.94
2022-10-06T07:05:33.259Z,101767.38
2022-10-06T07:08:01.315Z,101777.68
2022-10-06T07:10:31.701Z,101782.19
2022-10-06T07:12:59.725Z,101778.79
2022-10-06T07:15:46.409Z,101783.09
2022-10-06T07:18:33.647Z,101783.69
2022-10-06T07:21:21.278Z,101789.92
2022-10-06T07:24:09.827Z,101792.26
2022-10-06T07:26:38.000Z,101791.61
2022-10-06T07:29:05.967Z,101789.73
2022-10-06T07:31:36.272Z,101788.92
2022-10-06T07:34:05.000Z,101798.14
2022-10-06T07:36:33.149Z,101804.55
2022-10-06T07:39:01.224Z,101805.54
2022-10-06T07:41:31.619Z,101815.65
2022-10-06T07:44:07.963Z,101815.05
2022-10-06T07:46:37.720Z,101820.25
2022-10-06T07:49:17.978Z,101816.64
2022-10-06T07:51:46.457Z,101817.31
2022-10-06T07:54:14.731Z,101822.88
2022-10-06T07:57:01.541Z,101824.04
2022-10-06T07:59:29.435Z,101828.38
2022-10-06T08:01:57.490Z,101825.86
2022-10-06T08:04:25.444Z,101829.98
2022-10-06T08:06:54.745Z,101833.80
2022-10-06T08:09:22.712Z,101842.16
2022-10-06T08:11:50.994Z,101840.33
2022-10-06T08:14:18.978Z,101848.89
2022-10-06T08:16:47.131Z,101851.85
2022-10-06T08:19:17.255Z,101859.21
2022-10-06T08:21:45.320Z,101862.52
2022-10-06T08:24:15.812Z,101874.27
2022-10-06T08:26:44.085Z,101876.50
2022-10-06T08:29:12.032Z,101871.66
2022-10-06T08:31:40.180Z,101878.58
2022-10-06T08:34:11.996Z,101877.06
2022-10-06T08:36:45.013Z,101885.59
2022-10-06T08:39:20.480Z,101884.09
2022-10-06T08:41:52.309Z,101888.08
2022-10-06T08:44:39.023Z,101893.45
2022-10-06T08:47:18.552Z,101897.52
2022-10-06T08:49:48.496Z,101898.05
2022-10-06T08:52:34.868Z,101903.54
2022-10-06T08:55:02.733Z,101913.08
2022-10-06T08:57:44.925Z,101915.95
2022-10-06T09:00:19.647Z,101923.25
2022-10-06T09:02:51.954Z,101920.70
2022-10-06T09:05:28.648Z,101921.85
2022-10-06T09:08:20.923Z,101922.23
2022-10-06T09:11:13.793Z,101923.88
2022-10-06T09:13:53.380Z,101928.23
2022-10-06T09:16:32.499Z,101937.14
2022-10-06T09:19:24.833Z,101939.23
2022-10-06T09:21:54.585Z,101940.12
2022-10-06T09:24:30.463Z,101955.39
2022-10-06T09:26:59.184Z,101955.35
2022-10-06T09:29:32.104Z,101960.58
2022-10-06T09:32:03.058Z,101965.34
2022-10-06T09:34:49.474Z,101965.95
2022-10-06T09:37:19.759Z,101975.20
2022-10-06T09:39:52.633Z,101976.64
2022-10-06T09:42:23.612Z,101985.55
2022-10-06T09:44:51.616Z,101993.25
2022-10-06T09:47:28.397Z,101993.92
2022-10-06T09:50:17.770Z,102005.11
2022-10-06T09:52:58.065Z,102009.72
2022-10-06T09:55:31.161Z,102010.92
2022-10-06T09:58:00.276Z,102014.00
2022-10-06T10:00:36.752Z,102018.80
2022-10-06T10:03:13.883Z,102032.05
2022-10-06T10:05:49.264Z,102032.23
2022-10-06T10:08:22.496Z,102041.14
2022-10-06T10:11:30.365Z,102041.58
2022-10-06T10:13:59.664Z,102053.34
2022-10-06T10:16:34.861Z,102062.14
2022-10-06T10:19:05.858Z,102067.17
2022-10-06T10:21:35.591Z,102070.89
2022-10-06T10:24:15.136Z,102075.23
2022-10-06T10:27:07.229Z,102083.30
2022-10-06T10:30:02.816Z,102088.29
2022-10-06T10:32:39.832Z,102096.60
2022-10-06T10:35:18.226Z,102099.61
2022-10-06T10:37:57.074Z,102102.11
2022-10-06T10:40:31.628Z,102103.05
2022-10-06T10:43:15.247Z,102109.98
2022-10-06T10:45:58.051Z,102112.63
2022-10-06T10:48:51.693Z,102112.13
2022-10-06T10:51:34.724Z,102110.18
2022-10-06T10:54:15.995Z,102120.91
2022-10-06T10:56:45.258Z,102130.80
2022-10-06T10:59:25.442Z,102131.08
2022-10-06T11:02:02.065Z,102135.73
2022-10-06T11:04:31.039Z,102142.14
2022-10-06T11:06:59.077Z,102146.05
2022-10-06T11:09:48.958Z,102148.52
2022-10-06T11:12:42.937Z,102150.45
2022-10-06T11:15:48.617Z,102158.07
2022-10-06T11:18:41.558Z,102169.27
2022-10-06T11:21:26.603Z,102173.63
2022-10-06T11:24:14.854Z,102175.48
2022-10-06T11:27:24.600Z,102178.36
2022-10-06T11:30:19.760Z,102182.86
2022-10-06T11:33:08.124Z,102190.88
2022-10-06T11:35:41.868Z,102193.92
2022-10-06T11:38:18.787Z,102199.06
2022-10-06T11:40:54.186Z,102196.42
2022-10-06T11:43:41.147Z,102199.98
2022-10-06T11:46:32.414Z,102209.70
2022-10-06T11:49:28.954Z,102216.42
2022-10-06T11:52:08.194Z,102213.28
2022-10-06T11:54:39.524Z,102209.06
2022-10-06T11:57:26.221Z,102215.96
2022-10-06T12:00:03.632Z,102213.88
2022-10-06T12:02:35.009Z,102218.63
2022-10-06T12:08:03.055Z,102220.27
2022-10-06T12:10:33.784Z,102223.48
2022-10-06T12:13:11.380Z,102215.03
2022-10-06T12:18:49.829Z,102224.52
2022-10-06T12:21:43.310Z,102228.20
2022-10-06T12:24:20.874Z,102229.77
2022-10-06T12:27:03.158Z,102233.29
2022-10-06T12:29:49.268Z,102239.98
2022-10-06T12:32:34.133Z,102244.05
2022-10-06T12:35:15.455Z,102250.38
2022-10-06T12:37:54.000Z,102253.21
2022-10-06T12:40:47.241Z,102257.26
2022-10-06T12:43:15.383Z,102260.77
2022-10-06T12:46:05.064Z,102264.11
2022-10-06T12:48:54.717Z,102266.21
2022-10-06T12:51:43.975Z,102266.40
2022-10-06T12:54:58.875Z,102270.99
2022-10-06T12:57:30.872Z,102277.88
2022-10-06T12:59:58.985Z,102281.58
2022-10-06T13:02:28.497Z,102285.80
2022-10-06T13:05:01.015Z,102289.01
2022-10-06T13:07:32.155Z,102291.32
2022-10-06T13:10:15.261Z,102295.92
2022-10-06T13:12:47.323Z,102294.34
2022-10-06T13:18:13.123Z,102302.41
2022-10-06T13:20:51.458Z,102306.60
2022-10-06T13:23:32.512Z,102308.02
2022-10-06T13:26:05.317Z,102310.48
2022-10-06T13:28:33.329Z,102312.60
2022-10-06T13:31:23.143Z,102314.75
2022-10-06T13:33:55.793Z,102313.37
2022-10-06T13:36:24.561Z,102323.26
2022-10-06T13:38:53.513Z,102322.17
2022-10-06T13:41:26.996Z,102332.73
2022-10-06T13:44:25.888Z,102334.48
2022-10-06T13:46:58.673Z,102338.54
2022-10-06T13:49:34.730Z,102339.42
2022-10-06T13:52:10.099Z,102343.33
2022-10-06T13:54:55.591Z,102347.94
2022-10-06T13:57:44.210Z,102354.67
2022-10-06T14:00:23.801Z,102356.11
2022-10-06T14:02:55.870Z,102357.73
2022-10-06T14:05:32.663Z,102356.70
2022-10-06T14:08:04.437Z,102360.45
2022-10-06T14:10:37.875Z,102361.52
2022-10-06T14:13:16.060Z,102366.67
2022-10-06T14:15:50.610Z,102368.65
2022-10-06T14:18:23.344Z,102369.73
2022-10-06T14:20:53.570Z,102367.14
2022-10-06T14:23:42.321Z,102377.92
2022-10-06T14:26:13.038Z,102383.42
2022-10-06T14:28:47.389Z,102390.67
2022-10-06T14:31:16.042Z,102388.77
2022-10-06T14:33:45.520Z,102391.97
2022-10-06T14:36:28.237Z,102399.75
2022-10-06T14:38:58.491Z,102399.08
2022-10-06T14:41:29.494Z,102403.36
2022-10-06T14:43:58.683Z,102407.44
2022-10-06T14:46:26.971Z,102406.57
2022-10-06T14:48:55.863Z,102410.81
2022-10-06T14:51:26.492Z,102417.70
2022-10-06T14:53:57.420Z,102413.15
2022-10-06T14:56:29.101Z,102418.45
2022-10-06T14:59:00.248Z,102423.59
2022-10-06T15:01:30.178Z,102425.55
2022-10-06T15:04:00.951Z,102433.84
2022-10-06T15:06:47.667Z,102436.69
2022-10-06T15:09:15.648Z,102441.47
2022-10-06T15:11:43.753Z,102447.65
2022-10-06T15:14:11.783Z,102449.96
2022-10-06T15:16:42.418Z,102453.33
2022-10-06T15:19:12.600Z,102459.16
2022-10-06T15:21:42.115Z,102467.10
2022-10-06T15:24:14.225Z,102468.00
2022-10-06T15:27:02.082Z,102473.83
2022-10-06T15:29:59.128Z,102473.67
2022-10-06T15:32:27.095Z,102478.60
2022-10-06T15:34:55.473Z,102478.06
2022-10-06T15:37:23.372Z,102480.33
2022-10-06T15:39:52.433Z,102485.24
2022-10-06T15:42:24.395Z,102484.88
2022-10-06T15:44:52.362Z,102487.49
2022-10-06T15:47:21.055Z,102491.19
2022-10-06T15:49:49.530Z,102497.35
2022-10-06T15:52:18.755Z,102499.11
2022-10-06T15:54:48.846Z,102514.27
2022-10-06T15:57:21.037Z,102511.98
2022-10-06T15:59:49.498Z,102513.58
2022-10-06T16:02:20.122Z,102520.29
2022-10-06T16:04:55.471Z,102524.16
2022-10-06T16:07:23.609Z,102527.17
2022-10-06T16:09:52.022Z,102529.83
2022-10-06T16:12:22.444Z,102530.90
2022-10-06T16:14:50.408Z,102538.64
2022-10-06T16:17:18.889Z,102539.89
2022-10-06T16:19:47.370Z,102544.12
2022-10-06T16:22:18.250Z,102548.35
2022-10-06T16:24:46.169Z,102550.95
2022-10-06T16:27:15.354Z,102561.83
2022-10-06T16:29:43.746Z,102565.35
2022-10-06T16:32:11.694Z,102572.38
2022-10-06T16:34:39.579Z,102578.54
2022-10-06T16:37:07.549Z,102583.98
2022-10-06T16:39:35.524Z,102591.89
2022-10-06T16:42:04.102Z,102594.34
2022-10-06T16:44:32.114Z,102595.20
2022-10-06T16:47:00.286Z,102603.63
2022-10-06T16:49:28.619Z,102613.81
2022-10-06T16:51:56.604Z,102619.59
2022-10-06T16:54:25.800Z,102623.26
2022-10-06T16:56:58.358Z,102626.05
2022-10-06T16:59:26.739Z,102629.71
2022-10-06T17:01:54.705Z,102637.77
2022-10-06T17:04:25.410Z,102644.94
2022-10-06T17:06:55.570Z,102650.69
2022-10-06T17:09:28.102Z,102652.76
2022-10-06T17:11:59.169Z,102652.86
2022-10-06T17:14:28.698Z,102650.54
2022-10-06T17:16:57.978Z,102644.88
2022-10-06T17:19:28.859Z,102647.66
2022-10-06T17:21:59.323Z,102650.61
2022-10-06T17:24:29.735Z,102648.84
2022-10-06T17:26:58.553Z,102648.98
2022-10-06T17:29:27.308Z,102650.02
2022-10-06T17:32:02.717Z,102649.31
2022-10-06T17:34:33.444Z,102652.11
2022-10-06T17:37:02.521Z,102652.79
2022-10-06T17:39:30.794Z,102655.41
2022-10-06T17:41:59.371Z,102652.07
2022-10-06T17:44:28.886Z,102651.17
2022-10-06T17:47:00.391Z,102653.42
2022-10-06T17:49:32.755Z,102653.58
2022-10-06T17:52:01.028Z,102655.50
2022-10-06T17:54:31.903Z,102657.75
2022-10-06T17:57:00.082Z,102660.70
2022-10-06T17:59:33.940Z,102660.48
2022-10-06T18:02:03.145Z,102659.38
2022-10-06T18:04:33.887Z,102661.61
2022-10-06T18:07:03.318Z,102668.39
2022-10-06T18:09:31.391Z,102669.74
2022-10-06T18:12:00.312Z,102672.31
2022-10-06T18:14:34.537Z,102681.73
2022-10-06T18:17:04.202Z,102682.71
2022-10-06T18:19:36.548Z,102682.82
2022-10-06T18:22:10.263Z,102685.91
2022-10-06T18:24:39.197Z,102684.80
2022-10-06T18:27:08.377Z,102689.45
2022-10-06T18:29:38.613Z,102692.37
2022-10-06T18:37:44.437Z,102693.94
2022-10-06T18:40:14.891Z,102697.77
2022-10-06T18:42:42.968Z,102700.02
2022-10-06T18:45:33.155Z,102706.80
2022-10-06T18:48:21.197Z,102717.23
2022-10-06T18:51:02.282Z,102716.96
2022-10-06T18:53:32.802Z,102723.34
2022-10-06T18:56:00.684Z,102725.88
2022-10-06T18:58:28.633Z,102725.10
2022-10-06T19:00:56.779Z,102728.21
2022-10-06T19:03:26.923Z,102729.39
2022-10-06T19:05:54.895Z,102724.27
2022-10-06T19:08:22.761Z,102723.34
2022-10-06T19:11:09.064Z,102723.27
2022-10-06T19:13:37.537Z,102728.73
2022-10-06T19:16:06.469Z,102730.20
2022-10-06T19:18:37.262Z,102733.95
2022-10-06T19:21:09.507Z,102733.48
2022-10-06T19:23:38.939Z,102737.17
2022-10-06T19:26:09.562Z,102742.60
2022-10-06T19:28:38.346Z,102747.02
2022-10-06T19:31:13.190Z,102750.91
2022-10-06T19:33:41.253Z,102750.23
2022-10-06T19:36:09.524Z,102747.91
2022-10-06T19:38:38.621Z,102751.87
2022-10-06T19:41:25.962Z,102756.34
2022-10-06T19:43:54.115Z,102755.34
2022-10-06T19:46:22.133Z,102759.29
2022-10-06T19:48:58.549Z,102763.05
2022-10-06T19:51:26.619Z,102767.65
2022-10-06T19:53:54.591Z,102768.79
2022-10-06T19:56:25.361Z,102769.23
2022-10-06T19:58:53.877Z,102771.42
2022-10-06T20:01:21.965Z,102771.17
2022-10-06T20:03:50.130Z,102769.87
2022-10-06T20:06:19.703Z,102767.89
2022-10-06T20:08:47.719Z,102769.73
2022-10-06T20:11:21.685Z,102777.84
2022-10-06T20:13:50.251Z,102787.89
2022-10-06T20:16:20.219Z,102791.99
2022-10-06T20:18:50.714Z,102791.55
2022-10-06T20:21:22.261Z,102789.91
2022-10-06T20:23:53.905Z,102788.25
2022-10-06T20:26:24.798Z,102792.52
2022-10-06T20:28:53.994Z,102794.20
2022-10-06T20:31:34.565Z,102791.49
2022-10-06T20:34:05.291Z,102792.27
2022-10-06T20:36:35.081Z,102794.11
2022-10-06T20:39:23.650Z,102791.08
2022-10-06T20:41:53.410Z,102793.57
2022-10-06T20:44:21.432Z,102792.77
2022-10-06T20:46:49.398Z,102793.27
2022-10-06T20:49:17.868Z,102794.76
2022-10-06T20:51:50.868Z,102788.58
2022-10-06T20:54:24.215Z,102793.02
2022-10-06T20:56:53.969Z,102795.73
2022-10-06T20:59:23.886Z,102797.04
2022-10-06T21:01:52.564Z,102800.30
2022-10-06T21:04:21.245Z,102799.54
2022-10-06T21:06:49.539Z,102802.30
2022-10-06T21:09:19.674Z,102796.32
2022-10-06T21:11:49.464Z,102801.69
2022-10-06T21:14:18.440Z,102800.08
2022-10-06T21:16:48.480Z,102803.02
2022-10-06T21:19:18.288Z,102807.71
2022-10-06T21:21:53.368Z,102804.00
2022-10-06T21:24:21.596Z,102800.11
2022-10-06T21:26:52.561Z,102798.02
2022-10-06T21:29:21.627Z,102800.29
2022-10-06T21:31:49.697Z,102800.08
2022-10-06T21:34:17.973Z,102804.59
2022-10-06T21:36:46.044Z,102804.37
2022-10-06T21:39:14.215Z,102809.04
2022-10-06T21:41:42.515Z,102808.23
2022-10-06T21:44:18.526Z,102806.96
2022-10-06T21:46:49.519Z,102809.70
2022-10-06T21:49:21.826Z,102805.98
2022-10-06T21:51:53.163Z,102807.11
2022-10-06T21:54:22.964Z,102805.83
2022-10-06T21:56:51.703Z,102807.89
2022-10-06T21:59:19.684Z,102807.70
2022-10-06T22:01:50.459Z,102807.67
2022-10-06T22:04:18.988Z,102807.79
2022-10-06T22:06:51.976Z,102811.23
2022-10-06T22:09:20.886Z,102813.09
2022-10-06T22:11:49.817Z,102814.42
2022-10-06T22:14:19.512Z,102813.33
2022-10-06T22:16:48.561Z,102813.10
2022-10-06T22:19:18.273Z,102809.56
2022-10-06T22:21:48.497Z,102812.14
2022-10-06T22:24:20.445Z,102808.98
2022-10-06T22:26:49.351Z,102812.78
2022-10-06T22:29:19.352Z,102816.22
2022-10-06T22:31:48.656Z,102817.92
2022-10-06T22:34:20.718Z,102819.42
2022-10-06T22:36:48.798Z,102818.34
2022-10-06T22:39:17.013Z,102820.50
2022-10-06T22:41:45.575Z,102823.41
2022-10-06T22:44:13.823Z,102827.71
2022-10-06T22:46:42.150Z,102825.91
2022-10-06T22:49:10.579Z,102822.05
2022-10-06T22:51:38.648Z,102820.58
2022-10-06T22:54:06.655Z,102827.16
2022-10-06T22:56:35.191Z,102822.58
2022-10-06T22:59:03.550Z,102820.61
2022-10-06T23:01:31.643Z,102824.57
2022-10-06T23:04:00.430Z,102822.43
2022-10-06T23:06:31.877Z,102820.27
2022-10-06T23:09:00.167Z,102819.50
2022-10-06T23:11:28.661Z,102822.25
2022-10-06T23:13:57.421Z,102822.52
2022-10-06T23:16:25.642Z,102824.71
2022-10-06T23:18:55.299Z,102825.38
2022-10-06T23:21:27.618Z,102826.73
2022-10-06T23:23:59.459Z,102831.57
2022-10-06T23:26:27.939Z,102827.17
2022-10-06T23:28:59.157Z,102829.06
2022-10-06T23:31:28.926Z,102824.48
2022-10-06T23:33:57.449Z,102823.41
2022-10-06T23:36:25.622Z,102820.02
2022-10-06T23:38:53.791Z,102824.71
2022-10-06T23:41:22.297Z,102820.48
2022-10-06T23:43:50.344Z,102821.30
2022-10-06T23:46:18.475Z,102821.43
2022-10-06T23:48:47.100Z,102820.36
2022-10-06T23:51:15.716Z,102818.09
2022-10-06T23:53:44.334Z,102813.15
2022-10-06T23:56:12.946Z,102814.21
2022-10-06T23:58:42.633Z,102815.58
